MSC Luna F — CQII4 — position and weather

sailwx.info

Track history (hours):
 
Tides and Currents Weather Stations Pressure Air Temp Water Temp Dewpoint Dewpoint Depression Visibility Wind Speed Wind Dir Waves Ship Positions

MSC Luna F

Last reported at 2018-Apr-17 22:25 UTC. Time now 2018-Apr-20 05:09 UTC.
Position N 32°22' E 015°13'.

Length 139 m; draft 7.1 m.

Type: Ship (hazmat cat A). MMSI: 255805968.

Date/timePositionNaut miles runAvg speedWind from/ knotsBaromVisibWave heightAir tempDewpointWater temp
2018-Apr-17 22:25N 32°22' E 015°13'0 0.0
2018-Apr-17 19:51N 32°22' E 015°13'226 8.6
2018-Apr-16 17:42N 36°08' E 015°28'611.4
2018-Apr-16 17:13N 36°13' E 015°28'8211.9
2018-Apr-16 10:16N 37°35' E 015°33'412.1
2018-Apr-16 09:58N 37°39' E 015°34'1812.4
2018-Apr-16 08:33N 37°57' E 015°34'213.2
2018-Apr-16 08:26N 37°58' E 015°35'613.3
2018-Apr-16 08:00N 38°04' E 015°35'612.6
2018-Apr-16 07:30N 38°10' E 015°36'510.5
2018-Apr-16 06:59N 38°15' E 015°39'612.3
2018-Apr-16 06:30N 38°20' E 015°43'612.0
2018-Apr-16 06:00N 38°24' E 015°49'510.0
2018-Apr-16 05:30N 38°27' E 015°54'1 0.9
2018-Apr-16 04:35N 38°27' E 015°54'0 0.0
2018-Apr-15 21:59N 38°28' E 015°54'0 0.0
2018-Apr-15 12:41N 38°27' E 015°54'0 0.0
2018-Apr-15 12:29N 38°27' E 015°54'0 0.0
2018-Apr-15 11:05N 38°27' E 015°54'0 0.0
2018-Apr-15 10:41N 38°27' E 015°54'0 0.0
2018-Apr-15 10:23N 38°27' E 015°54'114 9.8
2018-Apr-14 22:39N 40°03' E 014°33'411.5
2018-Apr-14 22:20N 40°06' E 014°30'411.5
2018-Apr-14 22:00N 40°09' E 014°27'611.2
2018-Apr-14 21:30N 40°14' E 014°23'510.8
2018-Apr-14 21:00N 40°18' E 014°19'510.4
2018-Apr-14 20:29N 40°23' E 014°15'1110.7
2018-Apr-14 19:28N 40°33' E 014°09'511.6
2018-Apr-14 19:00N 40°38' E 014°11'611.8
2018-Apr-14 18:30N 40°43' E 014°14'611.7
2018-Apr-14 18:00N 40°48' E 014°18'2 3.7
2018-Apr-14 17:28N 40°50' E 014°17'0 0.0
2018-Apr-14 16:58N 40°50' E 014°17'0 0.0
2018-Apr-14 16:28N 40°50' E 014°17'0 0.0
2018-Apr-14 15:58N 40°50' E 014°17'0 0.0
2018-Apr-14 15:28N 40°50' E 014°17'0 0.0
2018-Apr-14 14:49N 40°50' E 014°17'0 0.0
2018-Apr-14 14:19N 40°50' E 014°17'0 0.0
2018-Apr-14 13:55N 40°50' E 014°17'0 0.0
2018-Apr-14 13:28N 40°50' E 014°17'0 0.0
2018-Apr-14 12:58N 40°50' E 014°17'0 0.0
2018-Apr-14 12:25N 40°50' E 014°17'0 0.0
2018-Apr-14 11:52N 40°50' E 014°17'0 0.0
2018-Apr-14 11:25N 40°50' E 014°17'0 0.0
2018-Apr-14 06:52N 40°50' E 014°17'0 0.0
2018-Apr-14 06:28N 40°50' E 014°17'0 0.0
2018-Apr-14 05:58N 40°50' E 014°17'0 0.0
2018-Apr-14 05:28N 40°50' E 014°17'0 0.0
2018-Apr-14 04:58N 40°50' E 014°17'0 0.0
2018-Apr-14 04:28N 40°50' E 014°17'0 0.0
2018-Apr-14 03:58N 40°50' E 014°17'0 0.0
2018-Apr-14 03:28N 40°50' E 014°17'0 0.0
2018-Apr-14 02:52N 40°50' E 014°17'0 0.0
2018-Apr-14 02:22N 40°50' E 014°17'0 0.0
2018-Apr-14 01:58N 40°50' E 014°17'0 0.0
2018-Apr-14 01:28N 40°50' E 014°17'0 0.0
2018-Apr-14 00:58N 40°50' E 014°17'0 0.0
2018-Apr-14 00:28N 40°50' E 014°17'0 0.0
2018-Apr-13 23:58N 40°50' E 014°17'0 0.0
2018-Apr-13 23:28N 40°50' E 014°17'0 0.0
2018-Apr-13 22:58N 40°50' E 014°17'0 0.0
2018-Apr-13 22:28N 40°50' E 014°17'0 0.0
2018-Apr-13 21:52N 40°50' E 014°17'0 0.0
2018-Apr-13 21:28N 40°50' E 014°17'0 0.0
2018-Apr-13 20:58N 40°50' E 014°17'0 0.0
2018-Apr-13 20:22N 40°50' E 014°17'0 0.0
2018-Apr-13 19:52N 40°50' E 014°17'0 0.0
2018-Apr-13 19:28N 40°50' E 014°17'0 0.0
2018-Apr-13 17:34N 40°50' E 014°17'0 0.0
2018-Apr-13 17:28N 40°50' E 014°17'0 0.0
2018-Apr-13 11:34N 40°50' E 014°17'0 0.5
2018-Apr-13 11:18N 40°50' E 014°17'1 2.1
2018-Apr-13 11:00N 40°50' E 014°17'2 3.7
2018-Apr-13 10:30N 40°48' E 014°17'3 6.5
2018-Apr-13 10:00N 40°45' E 014°16'1 2.5
2018-Apr-13 09:30N 40°43' E 014°16'0 0.4
2018-Apr-13 09:00N 40°43' E 014°16'0 0.4
2018-Apr-13 08:30N 40°43' E 014°16'0 0.4
2018-Apr-13 08:00N 40°43' E 014°16'0 0.4
2018-Apr-13 07:29N 40°43' E 014°16'0 0.5
2018-Apr-13 07:00N 40°42' E 014°16'0 0.6
2018-Apr-13 06:30N 40°42' E 014°16'0 0.7
2018-Apr-13 06:00N 40°42' E 014°16'0 0.6
2018-Apr-13 05:30N 40°42' E 014°16'1 2.7
2018-Apr-13 05:00N 40°42' E 014°18'3 6.8
2018-Apr-13 04:30N 40°45' E 014°19'0 0.8
2018-Apr-13 04:00N 40°45' E 014°19'0 0.7
2018-Apr-13 03:30N 40°45' E 014°18'0 0.6
2018-Apr-13 03:00N 40°45' E 014°18'0 0.7
2018-Apr-13 02:30N 40°45' E 014°18'0 0.7
2018-Apr-13 02:00N 40°45' E 014°17'0 0.6
2018-Apr-13 01:30N 40°44' E 014°17'0 0.9
2018-Apr-13 01:00N 40°44' E 014°17'4 7.6
2018-Apr-13 00:30N 40°41' E 014°14'611.3
2018-Apr-13 00:00N 40°36' E 014°10'710.4
2018-Apr-12 23:19N 40°29' E 014°10'411.1
2018-Apr-12 22:58N 40°26' E 014°13'611.2
2018-Apr-12 22:26N 40°21' E 014°17'711.1
2018-Apr-12 21:48N 40°15' E 014°22'1611.0
2018-Apr-12 20:22N 40°02' E 014°33'11411.0
2018-Apr-12 10:00N 38°27' E 015°54'1 0.2
2018-Apr-12 05:59N 38°27' E 015°54'0 0.0
2018-Apr-11 21:53N 38°27' E 015°54'0 0.0
2018-Apr-11 15:35N 38°27' E 015°54'0 0.0
2018-Apr-11 15:29N 38°27' E 015°54'0 0.0
2018-Apr-11 14:11N 38°27' E 015°54'0 0.0
2018-Apr-11 12:29N 38°27' E 015°54'0 0.0
2018-Apr-11 11:59N 38°27' E 015°54'0 0.0
2018-Apr-11 11:29N 38°27' E 015°54'1 2.6
2018-Apr-11 10:54N 38°27' E 015°53'1 1.3
2018-Apr-11 10:11N 38°27' E 015°51'0 0.9
2018-Apr-11 09:53N 38°27' E 015°52'1 3.2
2018-Apr-11 09:28N 38°26' E 015°50'511.3
2018-Apr-11 09:00N 38°22' E 015°47'811.5
2018-Apr-11 08:18N 38°15' E 015°41'3 9.1
2018-Apr-11 07:59N 38°14' E 015°37'510.3
2018-Apr-11 07:30N 38°09' E 015°37'610.8
2018-Apr-11 06:58N 38°03' E 015°37'14011.7
2018-Apr-10 19:01N 36°01' E 017°02'261 5.0
2018-Apr-08 15:17N 32°09' E 019°25'  
Track history (hours):
 
Tides and Currents Weather Stations Pressure Air Temp Water Temp Dewpoint Dewpoint Depression Visibility Wind Speed Wind Dir Waves Ship Positions

MSC Luna F

Last reported at 2018-Apr-17 22:25 UTC. Time now 2018-Apr-20 05:09 UTC.
Position N 32°22' E 015°13'.

Length 139 m; draft 7.1 m.

Type: Ship (hazmat cat A). MMSI: 255805968.

Date/timePositionNaut miles runAvg speedWind from/ knotsBaromVisibWave heightAir tempDewpointWater temp
2018-Apr-17 22:25N 32°22' E 015°13'0 0.0
2018-Apr-17 19:51N 32°22' E 015°13'226 8.6
2018-Apr-16 17:42N 36°08' E 015°28'611.4
2018-Apr-16 17:13N 36°13' E 015°28'8211.9
2018-Apr-16 10:16N 37°35' E 015°33'412.1
2018-Apr-16 09:58N 37°39' E 015°34'1812.4
2018-Apr-16 08:33N 37°57' E 015°34'213.2
2018-Apr-16 08:26N 37°58' E 015°35'613.3
2018-Apr-16 08:00N 38°04' E 015°35'612.6
2018-Apr-16 07:30N 38°10' E 015°36'510.5
2018-Apr-16 06:59N 38°15' E 015°39'612.3
2018-Apr-16 06:30N 38°20' E 015°43'612.0
2018-Apr-16 06:00N 38°24' E 015°49'510.0
2018-Apr-16 05:30N 38°27' E 015°54'1 0.9
2018-Apr-16 04:35N 38°27' E 015°54'0 0.0
2018-Apr-15 21:59N 38°28' E 015°54'0 0.0
2018-Apr-15 12:41N 38°27' E 015°54'0 0.0
2018-Apr-15 12:29N 38°27' E 015°54'0 0.0
2018-Apr-15 11:05N 38°27' E 015°54'0 0.0
2018-Apr-15 10:41N 38°27' E 015°54'0 0.0
2018-Apr-15 10:23N 38°27' E 015°54'114 9.8
2018-Apr-14 22:39N 40°03' E 014°33'411.5
2018-Apr-14 22:20N 40°06' E 014°30'411.5
2018-Apr-14 22:00N 40°09' E 014°27'611.2
2018-Apr-14 21:30N 40°14' E 014°23'510.8
2018-Apr-14 21:00N 40°18' E 014°19'510.4
2018-Apr-14 20:29N 40°23' E 014°15'1110.7
2018-Apr-14 19:28N 40°33' E 014°09'511.6
2018-Apr-14 19:00N 40°38' E 014°11'611.8
2018-Apr-14 18:30N 40°43' E 014°14'611.7
2018-Apr-14 18:00N 40°48' E 014°18'2 3.7
2018-Apr-14 17:28N 40°50' E 014°17'0 0.0
2018-Apr-14 16:58N 40°50' E 014°17'0 0.0
2018-Apr-14 16:28N 40°50' E 014°17'0 0.0
2018-Apr-14 15:58N 40°50' E 014°17'0 0.0
2018-Apr-14 15:28N 40°50' E 014°17'0 0.0
2018-Apr-14 14:49N 40°50' E 014°17'0 0.0
2018-Apr-14 14:19N 40°50' E 014°17'0 0.0
2018-Apr-14 13:55N 40°50' E 014°17'0 0.0
2018-Apr-14 13:28N 40°50' E 014°17'0 0.0
2018-Apr-14 12:58N 40°50' E 014°17'0 0.0
2018-Apr-14 12:25N 40°50' E 014°17'0 0.0
2018-Apr-14 11:52N 40°50' E 014°17'0 0.0
2018-Apr-14 11:25N 40°50' E 014°17'0 0.0
2018-Apr-14 06:52N 40°50' E 014°17'0 0.0
2018-Apr-14 06:28N 40°50' E 014°17'0 0.0
2018-Apr-14 05:58N 40°50' E 014°17'0 0.0
2018-Apr-14 05:28N 40°50' E 014°17'0 0.0
2018-Apr-14 04:58N 40°50' E 014°17'0 0.0
2018-Apr-14 04:28N 40°50' E 014°17'0 0.0
2018-Apr-14 03:58N 40°50' E 014°17'0 0.0
2018-Apr-14 03:28N 40°50' E 014°17'0 0.0
2018-Apr-14 02:52N 40°50' E 014°17'0 0.0
2018-Apr-14 02:22N 40°50' E 014°17'0 0.0
2018-Apr-14 01:58N 40°50' E 014°17'0 0.0
2018-Apr-14 01:28N 40°50' E 014°17'0 0.0
2018-Apr-14 00:58N 40°50' E 014°17'0 0.0
2018-Apr-14 00:28N 40°50' E 014°17'0 0.0
2018-Apr-13 23:58N 40°50' E 014°17'0 0.0
2018-Apr-13 23:28N 40°50' E 014°17'0 0.0
2018-Apr-13 22:58N 40°50' E 014°17'0 0.0
2018-Apr-13 22:28N 40°50' E 014°17'0 0.0
2018-Apr-13 21:52N 40°50' E 014°17'0 0.0
2018-Apr-13 21:28N 40°50' E 014°17'0 0.0
2018-Apr-13 20:58N 40°50' E 014°17'0 0.0
2018-Apr-13 20:22N 40°50' E 014°17'0 0.0
2018-Apr-13 19:52N 40°50' E 014°17'0 0.0
2018-Apr-13 19:28N 40°50' E 014°17'0 0.0
2018-Apr-13 17:34N 40°50' E 014°17'0 0.0
2018-Apr-13 17:28N 40°50' E 014°17'0 0.0
2018-Apr-13 11:34N 40°50' E 014°17'0 0.5
2018-Apr-13 11:18N 40°50' E 014°17'1 2.1
2018-Apr-13 11:00N 40°50' E 014°17'2 3.7
2018-Apr-13 10:30N 40°48' E 014°17'3 6.5
2018-Apr-13 10:00N 40°45' E 014°16'1 2.5
2018-Apr-13 09:30N 40°43' E 014°16'0 0.4
2018-Apr-13 09:00N 40°43' E 014°16'0 0.4
2018-Apr-13 08:30N 40°43' E 014°16'0 0.4
2018-Apr-13 08:00N 40°43' E 014°16'0 0.4
2018-Apr-13 07:29N 40°43' E 014°16'0 0.5
2018-Apr-13 07:00N 40°42' E 014°16'0 0.6
2018-Apr-13 06:30N 40°42' E 014°16'0 0.7
2018-Apr-13 06:00N 40°42' E 014°16'0 0.6
2018-Apr-13 05:30N 40°42' E 014°16'1 2.7
2018-Apr-13 05:00N 40°42' E 014°18'3 6.8
2018-Apr-13 04:30N 40°45' E 014°19'0 0.8
2018-Apr-13 04:00N 40°45' E 014°19'0 0.7
2018-Apr-13 03:30N 40°45' E 014°18'0 0.6
2018-Apr-13 03:00N 40°45' E 014°18'0 0.7
2018-Apr-13 02:30N 40°45' E 014°18'0 0.7
2018-Apr-13 02:00N 40°45' E 014°17'0 0.6
2018-Apr-13 01:30N 40°44' E 014°17'0 0.9
2018-Apr-13 01:00N 40°44' E 014°17'4 7.6
2018-Apr-13 00:30N 40°41' E 014°14'611.3
2018-Apr-13 00:00N 40°36' E 014°10'710.4
2018-Apr-12 23:19N 40°29' E 014°10'411.1
2018-Apr-12 22:58N 40°26' E 014°13'611.2
2018-Apr-12 22:26N 40°21' E 014°17'711.1
2018-Apr-12 21:48N 40°15' E 014°22'1611.0
2018-Apr-12 20:22N 40°02' E 014°33'11411.0
2018-Apr-12 10:00N 38°27' E 015°54'1 0.2
2018-Apr-12 05:59N 38°27' E 015°54'0 0.0
2018-Apr-11 21:53N 38°27' E 015°54'0 0.0
2018-Apr-11 15:35N 38°27' E 015°54'0 0.0
2018-Apr-11 15:29N 38°27' E 015°54'0 0.0
2018-Apr-11 14:11N 38°27' E 015°54'0 0.0
2018-Apr-11 12:29N 38°27' E 015°54'0 0.0
2018-Apr-11 11:59N 38°27' E 015°54'0 0.0
2018-Apr-11 11:29N 38°27' E 015°54'1 2.6
2018-Apr-11 10:54N 38°27' E 015°53'1 1.3
2018-Apr-11 10:11N 38°27' E 015°51'0 0.9
2018-Apr-11 09:53N 38°27' E 015°52'1 3.2
2018-Apr-11 09:28N 38°26' E 015°50'511.3
2018-Apr-11 09:00N 38°22' E 015°47'811.5
2018-Apr-11 08:18N 38°15' E 015°41'3 9.1
2018-Apr-11 07:59N 38°14' E 015°37'510.3
2018-Apr-11 07:30N 38°09' E 015°37'610.8
2018-Apr-11 06:58N 38°03' E 015°37'14011.7
2018-Apr-10 19:01N 36°01' E 017°02'261 5.0
2018-Apr-08 15:17N 32°09' E 019°25'  

Dump ship's entire track history